Time;durP1;ratioP1;P1;durP2;ratioP2;P2;SDS_P1;SDS_P2;PMS_P1;PMS_P2;Temp;Humidity;BMP_temperature;BMP_pressure;BME280_temperature;BME280_humidity;BME280_pressure;Samples;Min_cycle;Max_cycle;Signal;HPM_P1;HPM_P2
2022/11/03 00:01:36;;;;;;;7.38;1.55;;;10.80;1.00;;;;;;5005418;28;20026;-77
2022/11/03 00:04:02;;;;;;;10.80;1.65;;;10.70;1.00;;;;;;4997626;28;20361;-77
2022/11/03 00:06:27;;;;;;;13.68;1.90;;;10.70;1.00;;;;;;4997143;28;20400;-77
2022/11/03 00:08:57;;;;;;;12.63;2.10;;;10.60;1.00;;;;;;4996909;28;20062;-77
2022/11/03 00:11:23;;;;;;;11.63;1.90;;;10.60;1.00;;;;;;4997020;28;20046;-77
2022/11/03 00:13:48;;;;;;;6.88;1.77;;;10.60;1.00;;;;;;4997130;28;20046;-77
2022/11/03 00:16:14;;;;;;;7.55;1.85;;;10.50;1.00;;;;;;4996798;28;20021;-77
2022/11/03 00:18:39;;;;;;;9.48;2.30;;;10.50;1.00;;;;;;4997148;28;20028;-77
2022/11/03 00:21:07;;;;;;;10.30;2.67;;;10.50;1.00;;;;;;4995644;28;20022;-77
2022/11/03 00:23:38;;;;;;;10.18;2.53;;;10.40;1.00;;;;;;4997643;28;20033;-77
2022/11/03 00:26:04;;;;;;;;;;;10.40;1.00;;;;;;4997218;28;20114;-77
2022/11/03 00:28:32;;;;;;;7.97;1.65;;;10.40;1.00;;;;;;4996501;28;19913;-77
2022/11/03 00:30:59;;;;;;;10.85;2.08;;;10.50;1.00;;;;;;4996878;28;20114;-77
2022/11/03 00:33:26;;;;;;;7.72;1.80;;;10.40;1.00;;;;;;4996648;28;20074;-77
2022/11/03 00:36:00;;;;;;;8.50;1.90;;;10.20;1.00;;;;;;4996831;28;20018;-77
2022/11/03 00:38:27;;;;;;;10.35;1.70;;;10.50;1.00;;;;;;4997096;28;20427;-77
2022/11/03 00:40:57;;;;;;;8.52;2.30;;;10.30;1.00;;;;;;4996431;28;20019;-77
2022/11/03 00:43:23;;;;;;;13.02;1.85;;;10.30;1.00;;;;;;4996620;28;20106;-77
2022/11/03 00:45:49;;;;;;;9.80;2.17;;;10.40;1.00;;;;;;4996289;28;20030;-77
2022/11/03 00:48:33;;;;;;;7.47;1.77;;;10.40;1.00;;;;;;4996437;28;20018;-77
2022/11/03 00:50:59;;;;;;;10.15;1.52;;;10.50;1.00;;;;;;4996225;28;20034;-77
2022/11/03 00:53:25;;;;;;;8.25;1.88;;;10.50;1.00;;;;;;5004168;28;20396;-77
2022/11/03 00:55:50;;;;;;;13.13;2.28;;;10.40;1.00;;;;;;4996365;28;20089;-77
2022/11/03 00:58:16;;;;;;;7.75;1.55;;;10.30;1.00;;;;;;5004560;28;20479;-77
2022/11/03 01:00:41;;;;;;;10.68;2.15;;;10.60;1.00;;;;;;5016095;28;20108;-78
2022/11/03 01:03:07;;;;;;;12.07;2.35;;;10.40;1.00;;;;;;5015723;28;20060;-78
2022/11/03 01:08:16;;;;;;;4.32;1.40;;;10.40;1.00;;;;;;5015477;28;20435;-77
2022/11/03 01:11:42;;;;;;;7.93;1.83;;;10.50;1.00;;;;;;5015387;28;20046;-77
2022/11/03 01:13:27;;;;;;;7.20;1.45;;;10.40;1.00;;;;;;5015559;28;20109;-77
2022/11/03 01:15:57;;;;;;;7.80;1.60;;;10.40;1.00;;;;;;5015574;28;20061;-77
2022/11/03 01:18:23;;;;;;;6.30;1.90;;;10.50;1.00;;;;;;5015347;28;20018;-77
2022/11/03 01:20:55;;;;;;;10.52;1.80;;;10.50;1.00;;;;;;5014995;28;20542;-77
2022/11/03 01:23:23;;;;;;;9.43;1.88;;;10.50;1.00;;;;;;5001339;28;20068;-77
2022/11/03 01:25:49;;;;;;;11.55;1.95;;;10.40;1.00;;;;;;5015135;28;20029;-77
2022/11/03 01:28:14;;;;;;;5.68;1.40;;;10.40;1.00;;;;;;5015300;28;20029;-77
2022/11/03 01:30:40;;;;;;;13.60;2.72;;;10.40;1.00;;;;;;5001066;28;20034;-78
2022/11/03 01:33:06;;;;;;;10.95;2.28;;;10.30;1.00;;;;;;4994936;28;20381;-78
2022/11/03 01:35:31;;;;;;;6.80;1.70;;;10.50;1.00;;;;;;4995435;28;20022;-77
2022/11/03 01:37:57;;;;;;;10.35;2.33;;;10.30;1.00;;;;;;4995872;28;20377;-78
2022/11/03 01:40:23;;;;;;;10.20;1.83;;;10.30;1.00;;;;;;4994270;28;20026;-78
2022/11/03 01:42:48;;;;;;;8.48;1.85;;;10.40;1.00;;;;;;4995675;28;20469;-77
2022/11/03 01:45:14;;;;;;;13.90;2.58;;;10.40;1.00;;;;;;4995352;28;20018;-77
2022/11/03 01:47:42;;;;;;;11.30;1.95;;;10.30;1.00;;;;;;4995082;28;20097;-77
2022/11/03 01:50:12;;;;;;;9.63;1.92;;;10.30;1.00;;;;;;4995108;28;20026;-77
2022/11/03 01:52:38;;;;;;;;;;;10.30;1.00;;;;;;5000087;28;20025;-78
2022/11/03 01:55:09;;;;;;;13.07;2.80;;;10.20;1.00;;;;;;5014719;28;19905;-78
2022/11/03 01:57:48;;;;;;;10.15;1.65;;;10.40;1.00;;;;;;5014926;28;20022;-77
2022/11/03 02:00:14;;;;;;;6.20;1.45;;;10.40;1.00;;;;;;5015112;28;20088;-78
2022/11/03 02:02:41;;;;;;;10.77;1.73;;;10.50;1.00;;;;;;5014680;28;20022;-78
2022/11/03 02:05:09;;;;;;;7.25;1.60;;;10.50;1.00;;;;;;5010743;28;20711;-78
2022/11/03 02:07:48;;;;;;;8.52;1.90;;;10.50;1.00;;;;;;4994802;28;20080;-78
2022/11/03 02:10:14;;;;;;;7.60;1.73;;;10.50;1.00;;;;;;4994705;28;20389;-77
2022/11/03 02:12:42;;;;;;;7.57;2.00;;;10.40;1.00;;;;;;4994866;28;20527;-77
2022/11/03 02:15:12;;;;;;;6.25;1.77;;;10.50;1.00;;;;;;4993595;28;20354;-77
2022/11/03 02:17:40;;;;;;;15.80;2.10;;;10.40;1.00;;;;;;4994774;28;20111;-78
2022/11/03 02:20:10;;;;;;;11.88;2.20;;;10.50;1.00;;;;;;4994765;28;20038;-77
2022/11/03 02:23:16;;;;;;;10.30;2.05;;;10.40;1.00;;;;;;4995217;28;20022;-77
2022/11/03 02:25:58;;;;;;;7.57;1.55;;;10.50;1.00;;;;;;5007109;28;20030;-77
2022/11/03 02:28:28;;;;;;;12.68;1.42;;;10.40;1.00;;;;;;4994567;28;20026;-77
2022/11/03 02:31:13;;;;;;;8.60;2.60;;;10.40;1.00;;;;;;4994597;28;20085;-78
2022/11/03 02:34:10;;;;;;;6.85;2.25;;;10.50;1.00;;;;;;5005924;28;20030;-77
2022/11/03 02:36:47;;;;;;;10.88;2.83;;;10.50;1.00;;;;;;5005460;28;20033;-77
2022/11/03 02:39:19;;;;;;;9.13;1.60;;;10.50;1.00;;;;;;4994152;28;20077;-77
2022/11/03 02:41:47;;;;;;;9.48;1.70;;;10.50;1.00;;;;;;4994643;28;20023;-78
2022/11/03 02:44:18;;;;;;;7.38;2.60;;;10.40;1.00;;;;;;4998851;28;20018;-77
2022/11/03 02:46:47;;;;;;;11.38;1.92;;;10.40;1.00;;;;;;5013986;28;20025;-77
2022/11/03 02:49:13;;;;;;;6.32;2.17;;;10.50;1.00;;;;;;5013759;28;20465;-78
2022/11/03 02:51:39;;;;;;;9.40;1.80;;;10.40;1.00;;;;;;5013815;28;20049;-78
2022/11/03 02:54:22;;;;;;;8.07;1.90;;;10.50;1.00;;;;;;5014050;28;20083;-77
2022/11/03 02:57:14;;;;;;;7.65;1.60;;;10.70;1.00;;;;;;5008277;28;20033;-78
2022/11/03 02:59:50;;;;;;;6.35;1.80;;;10.80;1.00;;;;;;5013638;28;20018;-78
2022/11/03 03:02:22;;;;;;;11.50;1.95;;;10.70;1.00;;;;;;5013978;28;20030;-77
2022/11/03 03:05:12;;;;;;;10.15;2.20;;;10.80;1.00;;;;;;5013827;28;20108;-77
2022/11/03 03:07:44;;;;;;;6.93;1.80;;;10.80;1.00;;;;;;5013948;28;20548;-78
2022/11/03 03:10:23;;;;;;;10.18;1.80;;;10.90;1.00;;;;;;5013339;28;20081;-78
2022/11/03 03:12:53;;;;;;;7.85;1.95;;;11.00;1.00;;;;;;5013622;28;20514;-77
2022/11/03 03:15:50;;;;;;;9.15;1.92;;;10.90;1.00;;;;;;4993835;28;20076;-78
2022/11/03 03:18:34;;;;;;;7.20;1.40;;;10.90;1.00;;;;;;4986687;28;20041;-78
2022/11/03 03:21:06;;;;;;;11.02;2.15;;;10.90;1.00;;;;;;5013697;28;20022;-77
2022/11/03 03:23:35;;;;;;;12.30;2.00;;;11.00;1.00;;;;;;5013647;28;20022;-77
2022/11/03 03:26:08;;;;;;;12.35;2.40;;;11.00;1.00;;;;;;4997770;28;20026;-77
2022/11/03 03:28:42;;;;;;;11.48;1.80;;;11.00;1.00;;;;;;4993817;28;20022;-77
2022/11/03 03:31:11;;;;;;;7.78;1.67;;;10.80;1.00;;;;;;5010828;28;20029;-78
2022/11/03 03:33:39;;;;;;;6.10;1.52;;;11.00;1.00;;;;;;5008871;28;20030;-78
2022/11/03 03:36:10;;;;;;;10.88;1.98;;;11.10;1.00;;;;;;4994608;28;20045;-77
2022/11/03 03:38:41;;;;;;;9.25;1.85;;;11.10;1.00;;;;;;4993907;28;20138;-77
2022/11/03 03:41:12;;;;;;;7.57;1.73;;;11.10;1.00;;;;;;4993849;28;20026;-77
2022/11/03 03:43:38;;;;;;;;;;;11.10;1.00;;;;;;5005847;28;20093;-77
2022/11/03 03:46:08;;;;;;;11.45;1.92;;;11.20;1.00;;;;;;5013346;28;20348;-77
2022/11/03 03:48:34;;;;;;;8.23;2.55;;;11.20;1.00;;;;;;5001498;28;20117;-78
2022/11/03 03:51:01;;;;;;;8.93;2.10;;;11.30;1.00;;;;;;4995449;28;20102;-77
2022/11/03 03:54:02;;;;;;;8.07;1.50;;;11.20;1.00;;;;;;5013192;28;20029;-77
2022/11/03 03:56:42;;;;;;;10.60;2.15;;;11.20;1.00;;;;;;4997684;28;20030;-77
2022/11/03 03:59:08;;;;;;;7.15;2.25;;;11.00;1.00;;;;;;5012353;28;20026;-78
2022/11/03 04:01:34;;;;;;;8.73;1.73;;;10.80;1.00;;;;;;5016811;28;20028;-78
2022/11/03 04:03:59;;;;;;;9.32;1.80;;;10.80;1.00;;;;;;5016770;28;20033;-78
2022/11/03 04:06:25;;;;;;;8.20;1.95;;;10.60;1.00;;;;;;5016804;28;20030;-77
2022/11/03 04:08:51;;;;;;;8.80;1.83;;;10.60;1.00;;;;;;5008356;28;20093;-77
2022/11/03 04:22:15;;;;;;;8.45;2.20;;;10.50;1.00;;;;;;4997145;28;20084;-77
2022/11/03 04:24:49;;;;;;;8.70;1.90;;;10.40;1.00;;;;;;5002311;28;20026;-78
2022/11/03 04:27:48;;;;;;;9.18;2.38;;;10.30;1.00;;;;;;5012327;28;20080;-78
2022/11/03 04:30:15;;;;;;;7.70;1.75;;;10.30;1.00;;;;;;4995528;28;20473;-77
2022/11/03 04:32:41;;;;;;;9.43;1.70;;;10.30;1.00;;;;;;5009669;28;20427;-77
2022/11/03 04:35:27;;;;;;;6.07;2.15;;;10.40;1.00;;;;;;4996726;28;20385;-78
2022/11/03 04:38:22;;;;;;;6.53;2.13;;;10.50;1.00;;;;;;4996965;28;20014;-78
2022/11/03 04:40:57;;;;;;;8.93;2.00;;;10.50;1.00;;;;;;4996896;28;20027;-78
2022/11/03 04:43:32;;;;;;;9.50;2.30;;;10.50;1.00;;;;;;4996456;28;20030;-78
2022/11/03 04:45:58;;;;;;;6.78;2.30;;;10.40;1.00;;;;;;4996424;28;20027;-78
2022/11/03 04:48:33;;;;;;;10.10;1.73;;;10.60;1.00;;;;;;5009158;28;20033;-77
2022/11/03 04:51:01;;;;;;;6.53;1.67;;;10.30;1.00;;;;;;4996593;28;20113;-78
2022/11/03 04:53:32;;;;;;;12.18;1.77;;;10.50;1.00;;;;;;4996240;28;20026;-77
2022/11/03 04:55:58;;;;;;;7.65;2.47;;;10.30;1.00;;;;;;4996358;28;20054;-77
2022/11/03 04:58:33;;;;;;;14.80;2.03;;;10.40;1.00;;;;;;5008234;28;20033;-78
2022/11/03 05:01:01;;;;;;;8.07;1.65;;;10.40;1.00;;;;;;5015938;28;20104;-78
2022/11/03 05:03:37;;;;;;;9.50;1.83;;;10.40;1.00;;;;;;5015750;28;20029;-78
2022/11/03 05:06:29;;;;;;;13.50;2.05;;;10.30;1.00;;;;;;5015207;28;20149;-78
2022/11/03 05:08:59;;;;;;;10.30;2.33;;;10.20;1.00;;;;;;5013619;28;20042;-77
2022/11/03 05:11:36;;;;;;;8.55;1.85;;;10.30;1.00;;;;;;5015389;28;20424;-77
2022/11/03 05:14:13;;;;;;;11.60;2.13;;;10.40;1.00;;;;;;5015862;28;20037;-77
2022/11/03 05:16:39;;;;;;;6.30;1.92;;;10.50;1.00;;;;;;5015519;28;20381;-78
2022/11/03 05:19:18;;;;;;;5.65;1.55;;;10.50;1.00;;;;;;5015479;28;20028;-77
2022/11/03 05:21:44;;;;;;;8.65;2.38;;;10.70;1.00;;;;;;4995812;28;20022;-78
2022/11/03 05:24:12;;;;;;;8.18;1.60;;;10.70;1.00;;;;;;5009450;28;20065;-77
2022/11/03 05:26:38;;;;;;;5.90;1.75;;;10.80;1.00;;;;;;5008440;28;20054;-78
2022/11/03 05:29:21;;;;;;;7.00;2.10;;;10.90;1.00;;;;;;4995727;28;20062;-77
2022/11/03 05:31:49;;;;;;;11.93;2.15;;;11.00;1.00;;;;;;4995727;28;20035;-77
2022/11/03 05:34:27;;;;;;;10.18;1.77;;;11.00;1.00;;;;;;4995383;28;20079;-77
2022/11/03 05:36:52;;;;;;;8.77;1.90;;;10.90;1.00;;;;;;4995651;28;20037;-78
2022/11/03 05:39:32;;;;;;;5.28;1.90;;;10.80;1.00;;;;;;5012267;28;20112;-78
2022/11/03 05:41:59;;;;;;;6.35;1.73;;;10.90;1.00;;;;;;4995516;28;20034;-77
2022/11/03 05:44:36;;;;;;;9.90;1.90;;;10.90;1.00;;;;;;5006259;28;20046;-77
2022/11/03 05:47:08;;;;;;;9.77;2.10;;;10.90;1.00;;;;;;4995232;28;20029;-77
2022/11/03 05:49:34;;;;;;;4.35;1.50;;;10.80;1.00;;;;;;4995086;28;20053;-77
2022/11/03 05:51:59;;;;;;;7.65;1.75;;;10.80;1.00;;;;;;4994995;28;20053;-77
2022/11/03 05:54:28;;;;;;;10.00;1.95;;;10.80;1.00;;;;;;4995092;28;20120;-77
2022/11/03 05:56:55;;;;;;;6.45;2.17;;;10.90;1.00;;;;;;4994911;28;20095;-77
2022/11/03 05:59:26;;;;;;;7.80;2.13;;;10.70;1.00;;;;;;4994944;28;20416;-77
2022/11/03 06:01:54;;;;;;;13.43;2.28;;;10.70;1.00;;;;;;4994563;28;20026;-77
2022/11/03 06:04:32;;;;;;;7.38;2.05;;;10.80;1.00;;;;;;4994666;28;20046;-77
2022/11/03 06:07:10;;;;;;;6.72;1.70;;;10.70;1.00;;;;;;5013444;28;20028;-77
2022/11/03 06:09:36;;;;;;;9.00;2.03;;;10.80;1.00;;;;;;5013699;28;20049;-77
2022/11/03 06:12:05;;;;;;;7.32;2.28;;;10.80;1.00;;;;;;5014061;28;20024;-77
2022/11/03 06:14:31;;;;;;;7.17;1.53;;;10.70;1.00;;;;;;5014017;28;20105;-77
2022/11/03 06:17:00;;;;;;;8.73;2.17;;;10.80;1.00;;;;;;5009857;28;20015;-77
2022/11/03 06:19:40;;;;;;;6.07;1.95;;;10.80;1.00;;;;;;5000330;28;20116;-77
2022/11/03 06:22:25;;;;;;;8.27;1.98;;;10.70;1.00;;;;;;5013861;28;20021;-77
2022/11/03 06:24:57;;;;;;;6.43;1.63;;;10.80;1.00;;;;;;5013749;28;20033;-77
2022/11/03 06:27:27;;;;;;;5.45;2.00;;;10.90;1.00;;;;;;5013957;28;20101;-77
2022/11/03 06:30:02;;;;;;;7.38;1.92;;;10.80;1.00;;;;;;5002142;28;20030;-77
2022/11/03 06:32:28;;;;;;;9.57;2.15;;;10.80;1.00;;;;;;4994147;28;20034;-77
2022/11/03 06:34:56;;;;;;;13.00;1.85;;;10.70;1.00;;;;;;4994069;28;20647;-77
2022/11/03 06:37:25;;;;;;;8.80;2.05;;;10.70;1.00;;;;;;4993999;28;20030;-77
2022/11/03 06:39:58;;;;;;;14.30;2.60;;;10.70;1.00;;;;;;4994278;28;20022;-77
2022/11/03 06:42:28;;;;;;;9.85;1.90;;;10.60;1.00;;;;;;4994406;28;20022;-77
2022/11/03 06:44:53;;;;;;;8.88;2.03;;;10.50;1.50;;;;;;4993783;28;20030;-77
2022/11/03 06:47:24;;;;;;;10.90;3.05;;;10.60;1.20;;;;;;4993585;28;20080;-77
2022/11/03 06:49:53;;;;;;;11.35;2.30;;;10.50;3.00;;;;;;5005115;28;20480;-77
2022/11/03 06:52:29;;;;;;;10.02;2.60;;;10.50;6.60;;;;;;5013381;28;20026;-77
2022/11/03 06:55:06;;;;;;;6.88;1.63;;;10.60;8.20;;;;;;4994297;28;20061;-77
2022/11/03 06:57:36;;;;;;;6.82;1.58;;;10.50;7.80;;;;;;4993737;28;20023;-77
2022/11/03 07:00:25;;;;;;;4.63;2.08;;;10.70;5.80;;;;;;4993837;28;20057;-77
2022/11/03 07:03:36;;;;;;;11.60;3.45;;;10.60;5.20;;;;;;4993809;28;20037;-77
2022/11/03 07:06:24;;;;;;;7.68;2.00;;;10.60;7.70;;;;;;4993909;28;20015;-77
2022/11/03 07:08:53;;;;;;;7.35;1.92;;;10.70;9.50;;;;;;5010891;28;20092;-77
2022/11/03 07:11:24;;;;;;;10.95;2.17;;;10.80;9.00;;;;;;5012835;28;20045;-77
2022/11/03 07:13:55;;;;;;;9.10;1.90;;;10.80;10.00;;;;;;5003663;28;20033;-77
2022/11/03 07:16:28;;;;;;;8.40;2.20;;;10.80;10.10;;;;;;4993499;28;20031;-77
2022/11/03 07:18:57;;;;;;;11.95;2.15;;;10.80;9.20;;;;;;4993668;28;20045;-77
2022/11/03 07:21:46;;;;;;;6.70;1.95;;;10.90;9.60;;;;;;4993588;28;20019;-77
2022/11/03 07:24:21;;;;;;;8.88;1.95;;;10.90;8.20;;;;;;4993745;28;20117;-77
2022/11/03 07:26:47;;;;;;;8.40;2.08;;;11.00;6.40;;;;;;4993579;28;20449;-77
2022/11/03 07:29:20;;;;;;;9.75;2.00;;;10.80;4.90;;;;;;4993562;28;20019;-77
2022/11/03 07:31:46;;;;;;;6.72;1.85;;;11.00;5.20;;;;;;4997660;28;20030;-77
2022/11/03 07:34:17;;;;;;;11.80;2.20;;;11.00;4.50;;;;;;4997667;28;20100;-77
2022/11/03 07:36:44;;;;;;;10.77;1.80;;;11.10;2.20;;;;;;4997591;28;20036;-77
2022/11/03 07:39:16;;;;;;;7.75;1.80;;;11.20;1.80;;;;;;4997257;28;20085;-77
2022/11/03 07:41:42;;;;;;;7.00;1.85;;;11.20;1.00;;;;;;5005082;28;20033;-77
2022/11/03 07:44:15;;;;;;;6.68;1.75;;;11.20;1.00;;;;;;4997790;28;20077;-77
2022/11/03 07:46:42;;;;;;;11.13;2.30;;;11.20;1.00;;;;;;4997558;28;20040;-77
2022/11/03 07:49:25;;;;;;;5.30;2.10;;;11.20;1.00;;;;;;4997024;28;20030;-77
2022/11/03 07:51:51;;;;;;;8.05;2.17;;;11.30;1.00;;;;;;4997433;28;20054;-77
2022/11/03 07:54:24;;;;;;;8.18;2.38;;;11.30;1.00;;;;;;4997232;28;20050;-77
2022/11/03 07:56:57;;;;;;;6.18;1.95;;;11.50;1.00;;;;;;5009029;28;20048;-77
2022/11/03 07:59:34;;;;;;;6.63;1.80;;;11.50;1.00;;;;;;5016644;28;20033;-77
2022/11/03 08:01:59;;;;;;;11.85;2.20;;;11.60;1.00;;;;;;5016603;28;20024;-77
2022/11/03 08:04:29;;;;;;;12.43;2.47;;;11.60;1.00;;;;;;5016941;28;20387;-77
2022/11/03 08:06:55;;;;;;;6.10;1.98;;;11.80;1.00;;;;;;5016733;28;20033;-78
2022/11/03 08:09:20;;;;;;;4.88;1.85;;;11.90;1.00;;;;;;5004267;28;20038;-78
2022/11/03 08:11:46;;;;;;;7.38;1.85;;;12.10;1.00;;;;;;4996875;28;20369;-77
2022/11/03 08:14:12;;;;;;;7.53;2.13;;;12.40;1.00;;;;;;4996832;28;20053;-77
2022/11/03 08:16:38;;;;;;;7.85;2.15;;;12.60;1.00;;;;;;4996886;28;20057;-77
2022/11/03 08:19:04;;;;;;;4.95;1.83;;;12.70;1.00;;;;;;4996901;28;20152;-77
2022/11/03 08:21:30;;;;;;;7.03;2.42;;;12.90;1.00;;;;;;4996648;28;20081;-77
2022/11/03 08:23:55;;;;;;;6.63;2.35;;;13.20;1.00;;;;;;4996726;28;20482;-77
2022/11/03 08:26:24;;;;;;;6.45;2.08;;;13.70;1.00;;;;;;5011240;28;20475;-77
2022/11/03 08:28:51;;;;;;;10.27;1.90;;;13.70;1.00;;;;;;5010711;28;20034;-78
2022/11/03 08:31:24;;;;;;;3.55;1.70;;;13.80;1.00;;;;;;4996718;28;20054;-77
2022/11/03 08:33:50;;;;;;;11.77;3.35;;;13.90;1.00;;;;;;4996598;28;20041;-77
2022/11/03 08:36:15;;;;;;;7.07;2.33;;;14.00;1.00;;;;;;4996304;28;20018;-78
2022/11/03 08:38:41;;;;;;;7.97;2.20;;;14.10;1.00;;;;;;5000398;28;20022;-77
2022/11/03 08:41:07;;;;;;;10.02;2.30;;;13.90;1.00;;;;;;5014728;28;20033;-77
2022/11/03 08:43:32;;;;;;;8.25;2.35;;;13.80;1.00;;;;;;5012983;28;20081;-77
2022/11/03 08:45:58;;;;;;;6.22;1.83;;;13.70;1.00;;;;;;4996904;28;20018;-77
2022/11/03 08:48:28;;;;;;;10.50;2.60;;;13.70;1.00;;;;;;4997061;28;20021;-77
2022/11/03 08:50:54;;;;;;;;;;;14.10;1.00;;;;;;4996249;28;20022;-77
2022/11/03 08:53:24;;;;;;;6.35;1.98;;;14.00;1.00;;;;;;4995757;28;19914;-77
2022/11/03 08:55:51;;;;;;;8.85;2.33;;;13.80;1.00;;;;;;4995465;28;20077;-77
2022/11/03 08:58:16;;;;;;;8.60;2.40;;;13.70;1.00;;;;;;4997557;28;20459;-77
2022/11/03 09:00:42;;;;;;;6.30;2.28;;;13.80;1.00;;;;;;4995478;28;20525;-77
2022/11/03 09:03:07;;;;;;;8.57;2.17;;;13.50;1.00;;;;;;5012060;28;20424;-77
2022/11/03 09:05:33;;;;;;;8.50;2.38;;;13.60;1.00;;;;;;4995044;28;20072;-77
2022/11/03 09:07:59;;;;;;;10.55;2.50;;;13.40;1.00;;;;;;4997960;28;20014;-77
2022/11/03 09:10:25;;;;;;;6.32;1.75;;;13.50;1.00;;;;;;4996616;28;20452;-77
2022/11/03 09:12:51;;;;;;;10.02;2.00;;;13.40;1.00;;;;;;5014210;28;20109;-77
2022/11/03 09:15:17;;;;;;;8.23;2.00;;;13.30;1.00;;;;;;5008201;28;20531;-77
2022/11/03 09:17:43;;;;;;;3.90;1.95;;;13.20;1.00;;;;;;5008580;28;20033;-77
2022/11/03 09:20:09;;;;;;;7.10;2.50;;;13.40;1.00;;;;;;5006789;28;20057;-77
2022/11/03 09:22:35;;;;;;;7.22;1.98;;;13.30;1.00;;;;;;4997222;28;20052;-77
2022/11/03 09:25:00;;;;;;;7.28;2.15;;;13.30;1.00;;;;;;5014323;28;20033;-77
2022/11/03 09:27:26;;;;;;;9.05;2.50;;;13.60;1.00;;;;;;5007844;28;20030;-78
2022/11/03 09:29:51;;;;;;;10.25;2.13;;;13.40;1.00;;;;;;4994660;28;20041;-77
2022/11/03 09:32:17;;;;;;;9.13;2.60;;;13.40;1.00;;;;;;4996810;28;20022;-77
2022/11/03 09:34:43;;;;;;;5.78;1.75;;;13.40;1.00;;;;;;5004231;28;20358;-77
2022/11/03 09:37:09;;;;;;;7.80;2.55;;;13.40;1.00;;;;;;5012638;28;20096;-77
2022/11/03 09:39:35;;;;;;;5.07;1.85;;;13.40;1.00;;;;;;5010619;28;20061;-77
2022/11/03 09:42:02;;;;;;;7.05;1.98;;;13.60;1.00;;;;;;5007545;28;20109;-77
2022/11/03 09:44:33;;;;;;;8.85;2.10;;;13.50;1.00;;;;;;5008075;28;20019;-77
2022/11/03 09:46:59;;;;;;;7.55;1.98;;;13.60;1.00;;;;;;5006045;28;20088;-77
2022/11/03 09:49:25;;;;;;;4.32;1.83;;;13.60;1.00;;;;;;5014245;28;20058;-77
2022/11/03 09:51:52;;;;;;;8.80;2.13;;;13.60;1.00;;;;;;4999837;28;20034;-77
2022/11/03 09:54:18;;;;;;;7.53;2.25;;;13.80;1.00;;;;;;4994392;28;20473;-77
2022/11/03 09:56:46;;;;;;;4.18;1.77;;;13.80;1.00;;;;;;5011582;28;20030;-76
2022/11/03 09:59:22;;;;;;;6.50;2.20;;;13.80;1.00;;;;;;4993520;28;20027;-77
2022/11/03 10:01:52;;;;;;;6.50;1.83;;;13.90;1.00;;;;;;4993932;28;20027;-76
2022/11/03 10:04:28;;;;;;;5.53;2.53;;;14.00;1.00;;;;;;4994086;28;20109;-77
2022/11/03 10:06:57;;;;;;;7.60;2.35;;;13.90;1.00;;;;;;4993931;28;20405;-77
2022/11/03 10:09:25;;;;;;;9.48;2.55;;;13.80;1.00;;;;;;4993544;28;20092;-77
2022/11/03 10:11:52;;;;;;;9.95;2.50;;;13.90;1.00;;;;;;4994074;28;20026;-76
2022/11/03 10:14:19;;;;;;;11.75;2.33;;;13.80;1.00;;;;;;4993664;28;20025;-76
2022/11/03 10:16:51;;;;;;;11.77;1.77;;;13.90;1.00;;;;;;5002790;28;20472;-76
2022/11/03 10:19:17;;;;;;;9.02;1.95;;;13.80;1.00;;;;;;5004883;28;20018;-76
2022/11/03 10:21:43;;;;;;;5.85;1.50;;;14.00;1.00;;;;;;5013079;28;20018;-77
2022/11/03 10:24:13;;;;;;;9.95;2.97;;;14.00;1.00;;;;;;5013100;28;20041;-76
2022/11/03 10:26:44;;;;;;;5.78;1.80;;;13.90;1.00;;;;;;5011732;28;20636;-77
2022/11/03 10:29:22;;;;;;;8.02;1.80;;;14.00;1.00;;;;;;5012787;28;20129;-76
2022/11/03 10:31:50;;;;;;;7.55;2.00;;;14.00;1.00;;;;;;5012983;28;20084;-77
2022/11/03 10:34:33;;;;;;;7.68;2.58;;;14.10;1.00;;;;;;5013009;28;20084;-76
2022/11/03 10:37:23;;;;;;;6.55;2.10;;;14.20;1.00;;;;;;5013085;28;20073;-77
2022/11/03 10:39:51;;;;;;;5.25;2.00;;;14.20;1.00;;;;;;4993455;28;20049;-76
2022/11/03 10:42:22;;;;;;;7.75;2.05;;;14.40;1.00;;;;;;5012859;28;20037;-77
2022/11/03 10:44:54;;;;;;;6.35;1.75;;;14.40;1.00;;;;;;5012890;28;20025;-76
2022/11/03 10:48:05;;;;;;;5.35;1.52;;;14.40;1.00;;;;;;4996029;28;20662;-76
2022/11/03 10:50:31;;;;;;;6.72;1.92;;;14.50;1.00;;;;;;5000395;28;20038;-76
2022/11/03 10:52:57;;;;;;;6.13;2.15;;;14.80;1.00;;;;;;4993117;28;20022;-77
2022/11/03 10:55:25;;;;;;;11.48;2.30;;;15.00;1.00;;;;;;4992911;28;20033;-76
2022/11/03 10:57:54;;;;;;;7.30;1.70;;;15.10;1.00;;;;;;4993027;28;20109;-77
2022/11/03 11:00:20;;;;;;;8.02;1.90;;;15.20;1.00;;;;;;4997335;28;20018;-77
2022/11/03 11:02:47;;;;;;;6.65;1.73;;;15.10;1.00;;;;;;4992839;28;20520;-77
2022/11/03 11:05:17;;;;;;;6.53;2.20;;;15.10;1.00;;;;;;5000121;28;20532;-76
2022/11/03 11:07:43;;;;;;;6.35;1.90;;;15.10;1.00;;;;;;5012396;28;20080;-77
2022/11/03 11:10:30;;;;;;;7.88;2.33;;;15.00;1.00;;;;;;5011996;28;20129;-77
2022/11/03 11:13:17;;;;;;;6.20;1.80;;;14.90;1.00;;;;;;5002961;28;20022;-76
2022/11/03 11:15:57;;;;;;;9.75;1.60;;;14.80;1.00;;;;;;5012308;28;20528;-77
2022/11/03 11:18:49;;;;;;;8.82;2.03;;;14.80;1.00;;;;;;4995758;28;20416;-77
2022/11/03 11:21:14;;;;;;;12.75;2.70;;;14.80;1.00;;;;;;4996353;28;20034;-77
2022/11/03 11:23:40;;;;;;;6.32;1.85;;;14.90;1.00;;;;;;4992345;28;20037;-76
2022/11/03 11:26:13;;;;;;;7.50;1.70;;;15.00;1.00;;;;;;4992348;28;20023;-77
2022/11/03 11:28:44;;;;;;;7.65;2.22;;;15.10;1.00;;;;;;4992415;28;20022;-76
2022/11/03 11:31:29;;;;;;;9.30;2.50;;;15.20;1.00;;;;;;4992402;28;20039;-76
2022/11/03 11:34:15;;;;;;;6.38;2.03;;;15.30;1.00;;;;;;5002849;28;20464;-77
2022/11/03 11:36:46;;;;;;;8.40;2.33;;;15.40;1.00;;;;;;5000916;28;20027;-77
2022/11/03 11:39:26;;;;;;;5.80;1.80;;;15.50;1.00;;;;;;4992356;28;20026;-77
2022/11/03 11:42:18;;;;;;;7.35;1.90;;;15.50;1.00;;;;;;4999635;28;20049;-77
2022/11/03 11:44:53;;;;;;;8.50;2.10;;;15.50;1.00;;;;;;4992061;28;20018;-77
2022/11/03 11:47:48;;;;;;;6.07;1.70;;;15.40;1.00;;;;;;5003143;28;20029;-77
2022/11/03 11:50:13;;;;;;;7.97;1.95;;;15.40;1.00;;;;;;4992625;28;20026;-77
2022/11/03 11:52:41;;;;;;;8.60;2.10;;;15.40;1.00;;;;;;4992366;28;20022;-77
2022/11/03 11:55:21;;;;;;;7.38;2.10;;;15.40;1.00;;;;;;4992318;28;20025;-77
2022/11/03 11:57:47;;;;;;;6.75;2.20;;;15.30;1.00;;;;;;4992464;28;20030;-77
2022/11/03 12:00:49;;;;;;;7.30;1.75;;;15.30;1.00;;;;;;4999449;28;20029;-77
2022/11/03 12:03:14;;;;;;;6.95;2.17;;;15.20;1.00;;;;;;4995693;28;20018;-77
2022/11/03 12:05:41;;;;;;;9.75;2.17;;;15.00;1.00;;;;;;4994678;28;20104;-77
2022/11/03 12:08:24;;;;;;;4.43;1.88;;;14.90;1.00;;;;;;5001891;28;20050;-77
2022/11/03 12:10:57;;;;;;;9.52;2.03;;;14.90;1.00;;;;;;4996502;28;20082;-77
2022/11/03 12:13:40;;;;;;;7.10;2.28;;;15.10;1.00;;;;;;5005243;28;20030;-77
2022/11/03 12:16:06;;;;;;;9.63;2.33;;;15.00;1.00;;;;;;5008985;28;20097;-77
2022/11/03 12:18:34;;;;;;;10.02;2.35;;;15.10;1.00;;;;;;4996575;28;20184;-77
2022/11/03 12:21:01;;;;;;;8.38;2.10;;;15.10;1.00;;;;;;5003118;28;20030;-77
2022/11/03 12:23:35;;;;;;;4.30;1.92;;;15.10;1.00;;;;;;5001944;28;20030;-77
2022/11/03 12:26:03;;;;;;;6.88;1.92;;;15.00;1.00;;;;;;4998423;28;20026;-77
2022/11/03 12:28:36;;;;;;;5.13;1.70;;;15.10;1.00;;;;;;5001255;28;20029;-76
2022/11/03 12:31:02;;;;;;;6.05;2.35;;;15.20;1.00;;;;;;4997884;28;20061;-77
2022/11/03 12:33:28;;;;;;;9.93;2.22;;;15.10;1.00;;;;;;5002223;28;20034;-77
2022/11/03 12:35:55;;;;;;;6.28;1.83;;;15.10;1.00;;;;;;5008816;28;20033;-78
2022/11/03 12:38:21;;;;;;;6.55;1.92;;;15.10;1.00;;;;;;5009441;28;20067;-78
2022/11/03 12:40:46;;;;;;;8.98;2.05;;;15.10;1.00;;;;;;5007765;28;20105;-77
2022/11/03 12:43:12;;;;;;;7.43;2.03;;;15.10;1.00;;;;;;5010337;28;20101;-78
2022/11/03 12:45:37;;;;;;;5.30;1.60;;;15.20;1.00;;;;;;5002355;28;20022;-78
2022/11/03 12:48:04;;;;;;;5.63;1.95;;;15.20;1.00;;;;;;5004960;28;20030;-78
2022/11/03 12:50:30;;;;;;;5.30;1.95;;;15.20;1.00;;;;;;5003168;28;20100;-78
2022/11/03 12:52:56;;;;;;;6.95;2.40;;;15.10;1.00;;;;;;5002750;28;20512;-77
2022/11/03 12:55:22;;;;;;;4.22;1.90;;;15.20;1.00;;;;;;5004347;28;20077;-78
2022/11/03 12:57:47;;;;;;;6.50;1.80;;;15.10;1.00;;;;;;4995480;28;20496;-77
2022/11/03 13:00:13;;;;;;;7.20;1.67;;;14.90;1.00;;;;;;4994044;28;20029;-78
2022/11/03 13:02:39;;;;;;;4.45;1.30;;;14.80;1.00;;;;;;5004093;28;20053;-78
2022/11/03 13:05:05;;;;;;;5.38;1.70;;;14.80;1.00;;;;;;5008648;28;20102;-78
2022/11/03 13:07:31;;;;;;;7.65;1.90;;;14.80;1.00;;;;;;5002447;28;20037;-78
2022/11/03 13:09:57;;;;;;;5.95;1.70;;;14.80;1.00;;;;;;5001044;28;20042;-77
2022/11/03 13:12:31;;;;;;;7.03;1.50;;;14.60;1.00;;;;;;5007687;28;20026;-78
2022/11/03 13:14:58;;;;;;;9.75;2.05;;;14.70;1.00;;;;;;5007111;28;20292;-78
2022/11/03 13:17:25;;;;;;;4.28;1.52;;;14.60;1.00;;;;;;5010285;28;20037;-78
2022/11/03 13:19:51;;;;;;;5.93;1.83;;;14.50;1.00;;;;;;5011887;28;20532;-77
2022/11/03 13:22:17;;;;;;;8.68;1.95;;;14.50;1.00;;;;;;5001867;28;20093;-77
2022/11/03 13:24:42;;;;;;;7.57;1.75;;;14.50;1.00;;;;;;5005275;28;20027;-77
2022/11/03 13:27:08;;;;;;;7.50;1.70;;;14.50;1.00;;;;;;4998557;28;20018;-77
2022/11/03 13:29:34;;;;;;;4.80;1.67;;;14.50;1.00;;;;;;5008495;28;20038;-77